Time;durP1;ratioP1;P1;durP2;ratioP2;P2;SDS_P1;SDS_P2;PMS_P1;PMS_P2;Temp;Humidity;BMP_temperature;BMP_pressure;BME280_temperature;BME280_humidity;BME280_pressure;Samples;Min_cycle;Max_cycle;Signal;HPM_P1;HPM_P2
2023/06/22 00:02:23;;;;;;;8.70;6.25;;;24.20;55.20;;;;;;4997522;28;20065;-52
2023/06/22 00:04:50;;;;;;;6.60;5.90;;;24.20;55.30;;;;;;4995927;28;20837;-51
2023/06/22 00:07:19;;;;;;;8.07;6.03;;;24.20;55.80;;;;;;4999468;28;20054;-54
2023/06/22 00:09:46;;;;;;;8.25;5.78;;;24.20;55.30;;;;;;4998377;28;20050;-53
2023/06/22 00:12:13;;;;;;;6.97;5.80;;;24.20;55.40;;;;;;4996006;28;20050;-53
2023/06/22 00:14:40;;;;;;;6.57;5.72;;;24.10;55.40;;;;;;4998876;28;20409;-54
2023/06/22 00:17:07;;;;;;;7.05;5.50;;;24.10;55.40;;;;;;4997839;28;20051;-53
2023/06/22 00:19:35;;;;;;;6.57;5.68;;;24.10;55.40;;;;;;5000232;28;20061;-52
2023/06/22 00:22:03;;;;;;;6.47;5.50;;;24.10;55.40;;;;;;4996348;28;20046;-52
2023/06/22 00:24:31;;;;;;;6.85;5.60;;;24.10;55.40;;;;;;4997252;28;20057;-53
2023/06/22 00:26:59;;;;;;;7.65;6.10;;;24.10;55.50;;;;;;4994356;28;20406;-53
2023/06/22 00:29:26;;;;;;;6.95;6.13;;;24.20;55.50;;;;;;4998448;28;20049;-51
2023/06/22 00:31:53;;;;;;;6.90;5.93;;;24.10;55.50;;;;;;5000103;28;20053;-52
2023/06/22 00:34:20;;;;;;;7.38;5.65;;;24.10;55.60;;;;;;5002695;28;20497;-52
2023/06/22 00:36:47;;;;;;;7.30;6.03;;;24.10;55.60;;;;;;5002083;28;20057;-53
2023/06/22 00:39:14;;;;;;;7.57;6.38;;;24.10;55.70;;;;;;5003325;28;20081;-53
2023/06/22 00:41:43;;;;;;;6.60;5.70;;;24.10;55.70;;;;;;4998938;28;20466;-52
2023/06/22 00:44:10;;;;;;;6.78;5.35;;;24.10;55.70;;;;;;5001361;28;20065;-53
2023/06/22 00:46:37;;;;;;;7.88;6.25;;;24.10;55.70;;;;;;5002092;28;20054;-53
2023/06/22 00:49:05;;;;;;;8.73;5.80;;;24.10;55.80;;;;;;5001481;28;20056;-50
2023/06/22 00:51:33;;;;;;;8.88;7.13;;;24.10;55.80;;;;;;4999966;28;20084;-50
2023/06/22 00:54:00;;;;;;;10.48;6.82;;;24.10;55.70;;;;;;5002741;28;20425;-54
2023/06/22 00:56:29;;;;;;;9.20;7.05;;;24.10;55.70;;;;;;4999762;28;20430;-52
2023/06/22 00:58:59;;;;;;;8.68;6.45;;;24.10;55.70;;;;;;5001575;28;20057;-50
2023/06/22 01:01:26;;;;;;;7.95;6.95;;;24.10;55.70;;;;;;5001572;28;20477;-60
2023/06/22 01:03:57;;;;;;;10.65;6.38;;;24.10;55.60;;;;;;5016222;23;20151;-54
2023/06/22 01:06:34;;;;;;;7.38;6.05;;;24.00;55.60;;;;;;4999213;28;20058;-54
2023/06/22 01:09:07;;;;;;;7.70;6.43;;;24.00;55.70;;;;;;5001026;28;20058;-56
2023/06/22 01:11:45;;;;;;;7.18;6.35;;;24.00;55.80;;;;;;4997938;28;20528;-55
2023/06/22 01:14:23;;;;;;;8.50;7.03;;;24.00;55.90;;;;;;4999584;28;20058;-51
2023/06/22 01:16:55;;;;;;;7.80;7.00;;;24.00;56.00;;;;;;5001088;28;20049;-56
2023/06/22 01:19:36;;;;;;;9.60;7.43;;;24.00;56.10;;;;;;5002992;28;20426;-54
2023/06/22 01:22:06;;;;;;;10.52;7.97;;;24.00;56.30;;;;;;4998889;28;20061;-52
2023/06/22 01:24:42;;;;;;;8.57;7.10;;;24.00;56.30;;;;;;5000169;28;20058;-53
2023/06/22 01:27:21;;;;;;;9.63;7.03;;;24.00;56.40;;;;;;5002016;28;20064;-52
2023/06/22 01:29:52;;;;;;;9.35;6.65;;;23.90;56.40;;;;;;5000449;28;20076;-58
2023/06/22 01:32:19;;;;;;;8.32;6.82;;;23.90;56.50;;;;;;4992118;28;20069;-53
2023/06/22 01:34:48;;;;;;;7.85;6.75;;;23.90;56.60;;;;;;4999114;28;20046;-55
2023/06/22 01:37:16;;;;;;;9.90;6.57;;;23.90;56.70;;;;;;4999550;28;20050;-52
2023/06/22 01:39:43;;;;;;;8.10;6.28;;;23.90;56.80;;;;;;4998994;28;20053;-54
2023/06/22 01:42:11;;;;;;;7.60;6.03;;;23.90;56.90;;;;;;5000597;28;20065;-55
2023/06/22 01:44:39;;;;;;;7.28;6.38;;;23.90;56.90;;;;;;5002304;28;20069;-57
2023/06/22 01:47:08;;;;;;;7.57;6.57;;;23.90;57.00;;;;;;5000220;28;20050;-55
2023/06/22 01:49:36;;;;;;;7.35;6.35;;;23.90;57.10;;;;;;5001049;28;20050;-52
2023/06/22 01:52:04;;;;;;;7.45;6.45;;;24.00;57.10;;;;;;4998895;28;20068;-56
2023/06/22 01:54:31;;;;;;;9.88;6.55;;;23.90;57.10;;;;;;5001346;28;20054;-54
2023/06/22 01:56:58;;;;;;;8.35;6.85;;;24.00;57.10;;;;;;4999499;28;20053;-58
2023/06/22 01:59:29;;;;;;;8.98;7.10;;;24.00;57.10;;;;;;5001302;28;20058;-53
2023/06/22 02:02:02;;;;;;;11.18;6.85;;;24.00;57.10;;;;;;4999036;28;20054;-55
2023/06/22 02:04:38;;;;;;;8.63;6.50;;;24.00;57.00;;;;;;5002484;28;20057;-53
2023/06/22 02:07:12;;;;;;;8.13;7.28;;;24.00;57.00;;;;;;5001111;28;20091;-52
2023/06/22 02:09:41;;;;;;;9.27;7.03;;;23.90;57.00;;;;;;5001260;28;20057;-58
2023/06/22 02:12:12;;;;;;;9.20;6.88;;;24.00;57.00;;;;;;4998910;28;20058;-54
2023/06/22 02:14:40;;;;;;;7.80;6.45;;;24.00;57.00;;;;;;5000844;28;20073;-60
2023/06/22 02:17:09;;;;;;;8.45;6.93;;;24.00;57.10;;;;;;4997073;28;20497;-59
2023/06/22 02:19:39;;;;;;;8.20;7.20;;;24.00;57.10;;;;;;4987498;28;20564;-60
2023/06/22 02:22:06;;;;;;;8.60;7.53;;;24.00;57.20;;;;;;4997458;28;20426;-60
2023/06/22 02:24:33;;;;;;;9.43;6.57;;;23.90;57.10;;;;;;4996914;28;20398;-60
2023/06/22 02:27:02;;;;;;;9.98;6.43;;;23.90;57.10;;;;;;4997983;28;20053;-59
2023/06/22 02:29:31;;;;;;;8.30;7.13;;;23.90;57.20;;;;;;4999858;28;20405;-60
2023/06/22 02:31:58;;;;;;;8.07;6.90;;;24.00;57.30;;;;;;4999157;28;21227;-57
2023/06/22 02:34:25;;;;;;;7.45;6.68;;;23.90;57.30;;;;;;5002127;28;20054;-59
2023/06/22 02:36:54;;;;;;;7.65;6.85;;;23.90;57.30;;;;;;5000948;28;20050;-60
2023/06/22 02:39:23;;;;;;;8.25;6.88;;;23.90;57.40;;;;;;5001733;28;20052;-59
2023/06/22 02:41:50;;;;;;;8.48;7.10;;;23.90;57.40;;;;;;4998632;28;20049;-60
2023/06/22 02:44:18;;;;;;;8.52;6.38;;;23.90;57.40;;;;;;5000152;28;20065;-59
2023/06/22 02:46:46;;;;;;;8.13;6.97;;;23.90;57.50;;;;;;4998952;28;20051;-60
2023/06/22 02:49:13;;;;;;;8.38;7.47;;;23.90;57.50;;;;;;4997410;28;20055;-58
2023/06/22 02:51:44;;;;;;;8.90;6.90;;;23.90;57.40;;;;;;4999427;28;20497;-59
2023/06/22 02:54:12;;;;;;;9.52;7.43;;;23.90;57.50;;;;;;4984681;28;20058;-59
2023/06/22 02:56:40;;;;;;;7.63;6.68;;;23.90;57.50;;;;;;5000428;28;20049;-59
2023/06/22 02:59:07;;;;;;;8.90;7.43;;;23.90;57.50;;;;;;5001068;28;20057;-60
2023/06/22 03:01:39;;;;;;;8.18;6.93;;;23.90;58.00;;;;;;5000429;28;20073;-60
2023/06/22 03:04:07;;;;;;;7.63;6.82;;;23.90;57.60;;;;;;4997324;28;20064;-60
2023/06/22 03:06:35;;;;;;;9.57;7.38;;;23.90;57.60;;;;;;4998656;28;20050;-60
2023/06/22 03:09:04;;;;;;;8.80;7.60;;;23.90;57.60;;;;;;4999571;28;20064;-59
2023/06/22 03:11:34;;;;;;;10.00;8.10;;;23.90;57.70;;;;;;4998378;28;20413;-59
2023/06/22 03:14:02;;;;;;;11.55;7.28;;;23.80;57.60;;;;;;5000207;28;20489;-57
2023/06/22 03:16:29;;;;;;;8.45;7.60;;;23.80;57.70;;;;;;4999637;28;20054;-59
2023/06/22 03:18:56;;;;;;;10.00;7.70;;;23.90;57.80;;;;;;4998897;28;20057;-60
2023/06/22 03:21:24;;;;;;;9.52;7.80;;;23.80;58.30;;;;;;4995143;28;20420;-60
2023/06/22 03:23:51;;;;;;;11.85;8.20;;;23.80;57.80;;;;;;5000385;28;20073;-60
2023/06/22 03:26:19;;;;;;;9.52;8.15;;;23.80;57.80;;;;;;4997379;28;20482;-58
2023/06/22 03:28:48;;;;;;;10.30;8.30;;;23.80;57.90;;;;;;4998098;28;20046;-60
2023/06/22 03:31:15;;;;;;;9.45;7.97;;;23.90;58.00;;;;;;4998128;28;20103;-60
2023/06/22 03:33:42;;;;;;;9.45;8.32;;;23.80;57.90;;;;;;4999547;28;20568;-60
2023/06/22 03:36:09;;;;;;;10.13;7.47;;;23.80;58.00;;;;;;4997371;28;20513;-60
2023/06/22 03:38:36;;;;;;;8.77;7.88;;;23.80;58.00;;;;;;4997124;28;20133;-60
2023/06/22 03:41:03;;;;;;;8.68;7.50;;;23.90;58.10;;;;;;4996702;28;20517;-60
2023/06/22 03:43:31;;;;;;;10.90;8.00;;;23.90;58.10;;;;;;4998617;28;20398;-60
2023/06/22 03:45:59;;;;;;;10.43;7.90;;;23.90;58.10;;;;;;4998734;28;20053;-60
2023/06/22 03:48:26;;;;;;;10.77;7.90;;;23.90;58.20;;;;;;4994264;28;20057;-59
2023/06/22 03:50:54;;;;;;;9.15;7.65;;;23.90;58.20;;;;;;4993279;28;20529;-61
2023/06/22 03:53:21;;;;;;;10.43;8.27;;;23.90;58.20;;;;;;4995662;28;20053;-59
2023/06/22 03:55:50;;;;;;;10.23;9.02;;;23.80;58.30;;;;;;4999746;28;20053;-59
2023/06/22 03:58:18;;;;;;;11.77;9.50;;;23.90;58.30;;;;;;4999884;28;20584;-61
2023/06/22 04:00:47;;;;;;;8.88;7.97;;;23.90;58.30;;;;;;5000209;28;20053;-60
2023/06/22 04:03:15;;;;;;;8.82;7.93;;;23.90;58.40;;;;;;5000638;28;20065;-60
2023/06/22 04:05:43;;;;;;;11.05;7.78;;;23.90;58.40;;;;;;4998330;28;20509;-60
2023/06/22 04:08:10;;;;;;;9.90;8.07;;;23.90;58.40;;;;;;5002801;28;20050;-60
2023/06/22 04:10:38;;;;;;;9.45;7.50;;;23.90;58.40;;;;;;4999597;28;20054;-60
2023/06/22 04:13:05;;;;;;;10.80;7.10;;;23.90;58.90;;;;;;5001289;28;20054;-59
2023/06/22 04:15:32;;;;;;;9.05;7.60;;;23.90;58.50;;;;;;5000693;28;20061;-59
2023/06/22 04:17:59;;;;;;;11.93;8.15;;;23.90;58.50;;;;;;4993027;28;20149;-60
2023/06/22 04:20:28;;;;;;;10.68;7.32;;;23.90;58.50;;;;;;5000707;28;20498;-59
2023/06/22 04:22:55;;;;;;;9.25;7.22;;;23.90;58.50;;;;;;5000846;28;20049;-60
2023/06/22 04:25:23;;;;;;;9.30;7.68;;;23.90;58.50;;;;;;5001751;28;20137;-60
2023/06/22 04:27:50;;;;;;;11.45;8.65;;;23.90;58.50;;;;;;5000702;28;20065;-59
2023/06/22 04:30:18;;;;;;;10.93;8.07;;;23.90;58.60;;;;;;5003822;28;20054;-58
2023/06/22 04:32:45;;;;;;;11.50;8.20;;;23.90;58.60;;;;;;4999445;28;20057;-58
2023/06/22 04:35:13;;;;;;;10.13;7.57;;;23.90;58.60;;;;;;5003619;28;20054;-51
2023/06/22 04:37:41;;;;;;;9.77;7.72;;;23.90;58.60;;;;;;5000734;28;20064;-55
2023/06/22 04:40:09;;;;;;;11.13;8.00;;;23.90;58.70;;;;;;5002646;28;20498;-54
2023/06/22 04:42:38;;;;;;;8.88;7.68;;;23.90;58.60;;;;;;4999520;28;20058;-55
2023/06/22 04:45:06;;;;;;;11.70;8.25;;;23.90;58.60;;;;;;5002694;28;20416;-53
2023/06/22 04:47:34;;;;;;;9.25;7.63;;;23.90;58.70;;;;;;5001167;28;20057;-55
2023/06/22 04:50:05;;;;;;;9.40;7.57;;;23.90;58.60;;;;;;5001846;28;20049;-55
2023/06/22 04:52:32;;;;;;;10.90;8.27;;;23.90;58.60;;;;;;5000542;28;20072;-58
2023/06/22 04:55:01;;;;;;;9.38;8.02;;;23.90;58.60;;;;;;4999785;28;20054;-51
2023/06/22 04:57:32;;;;;;;9.65;7.80;;;23.90;58.50;;;;;;5001806;28;20073;-53
2023/06/22 05:00:16;;;;;;;10.38;8.18;;;23.90;58.50;;;;;;5002415;28;20054;-51
2023/06/22 05:02:43;;;;;;;;;;;23.90;58.50;;;;;;5000726;28;20065;-54
2023/06/22 05:05:13;;;;;;;11.05;7.65;;;24.00;58.40;;;;;;5002950;28;20301;-55
2023/06/22 05:07:43;;;;;;;9.82;7.93;;;23.90;58.40;;;;;;5002692;28;20053;-57
2023/06/22 05:10:13;;;;;;;9.55;7.97;;;23.90;58.60;;;;;;4999906;28;20419;-52
2023/06/22 05:12:41;;;;;;;10.15;7.70;;;23.90;58.70;;;;;;4998771;28;20073;-52
2023/06/22 05:15:09;;;;;;;11.18;7.90;;;23.90;58.70;;;;;;4998507;28;20053;-55
2023/06/22 05:17:42;;;;;;;12.02;8.20;;;23.90;58.80;;;;;;4999004;28;20069;-55
2023/06/22 05:20:11;;;;;;;9.03;7.77;;;23.90;58.90;;;;;;4991005;28;20517;-53
2023/06/22 05:22:38;;;;;;;8.57;7.38;;;23.90;59.10;;;;;;4994738;28;20505;-53
2023/06/22 05:25:09;;;;;;;9.50;7.25;;;23.90;59.10;;;;;;5001623;28;20061;-51
2023/06/22 05:27:40;;;;;;;9.35;7.47;;;23.90;59.20;;;;;;5001499;28;20050;-55
2023/06/22 05:30:08;;;;;;;10.05;7.13;;;23.90;59.30;;;;;;5001201;28;20054;-51
2023/06/22 05:32:36;;;;;;;11.45;7.22;;;23.90;59.30;;;;;;5001309;28;20053;-55
2023/06/22 05:35:03;;;;;;;10.55;7.03;;;24.00;59.40;;;;;;4992895;28;20585;-54
2023/06/22 05:37:31;;;;;;;9.10;7.18;;;24.00;59.40;;;;;;5000470;28;20054;-53
2023/06/22 05:40:03;;;;;;;8.68;6.93;;;24.00;59.50;;;;;;4998134;28;20050;-55
2023/06/22 05:42:31;;;;;;;11.57;7.10;;;24.00;59.60;;;;;;4994528;28;20049;-53
2023/06/22 05:45:00;;;;;;;7.65;6.53;;;24.00;59.60;;;;;;4998081;28;20054;-59
2023/06/22 05:47:27;;;;;;;9.13;7.07;;;24.10;59.70;;;;;;5000316;28;20053;-60
2023/06/22 05:49:54;;;;;;;9.93;7.20;;;24.10;59.80;;;;;;4994722;28;20424;-60
2023/06/22 05:52:21;;;;;;;7.72;6.93;;;24.10;59.80;;;;;;4991357;28;20054;-60
2023/06/22 05:54:48;;;;;;;8.18;6.72;;;24.10;59.90;;;;;;4998858;28;20502;-59
2023/06/22 05:57:16;;;;;;;10.10;7.30;;;24.20;60.00;;;;;;4999759;28;20398;-57
2023/06/22 05:59:43;;;;;;;10.15;7.18;;;24.20;60.00;;;;;;4999562;28;20052;-60
2023/06/22 06:02:11;;;;;;;9.02;6.70;;;24.20;60.00;;;;;;5001206;28;20053;-59
2023/06/22 06:04:38;;;;;;;9.48;6.88;;;24.30;59.90;;;;;;4999483;28;20057;-60
2023/06/22 06:07:06;;;;;;;7.68;6.60;;;24.30;59.80;;;;;;5000074;28;20076;-60
2023/06/22 06:09:33;;;;;;;7.32;6.35;;;24.40;59.80;;;;;;4998198;28;20050;-58
2023/06/22 06:12:02;;;;;;;8.90;7.38;;;24.40;59.80;;;;;;4999232;28;20058;-60
2023/06/22 06:14:30;;;;;;;8.48;7.28;;;24.50;59.80;;;;;;5001837;28;20509;-59
2023/06/22 06:16:57;;;;;;;9.23;6.57;;;24.50;59.60;;;;;;4998491;28;20057;-60
2023/06/22 06:19:25;;;;;;;8.48;7.43;;;24.60;59.60;;;;;;5000316;28;20490;-61
2023/06/22 06:21:52;;;;;;;12.15;8.15;;;24.60;59.60;;;;;;4988429;28;20085;-60
2023/06/22 06:24:20;;;;;;;11.32;8.07;;;24.70;59.60;;;;;;4992535;28;20057;-60
2023/06/22 06:26:48;;;;;;;11.73;8.90;;;24.70;59.50;;;;;;4992747;28;20168;-58
2023/06/22 06:29:16;;;;;;;9.85;8.00;;;24.70;59.40;;;;;;4993299;28;20060;-59
2023/06/22 06:31:43;;;;;;;11.20;7.85;;;24.80;59.30;;;;;;4992731;28;20486;-59
2023/06/22 06:34:11;;;;;;;10.82;8.55;;;24.80;59.20;;;;;;4998430;28;20052;-59
2023/06/22 06:36:39;;;;;;;9.38;8.32;;;24.90;59.20;;;;;;5000632;28;20054;-60
2023/06/22 06:39:06;;;;;;;10.32;7.47;;;24.90;59.20;;;;;;4999169;28;20062;-58
2023/06/22 06:41:33;;;;;;;8.77;7.82;;;25.00;59.20;;;;;;4999140;28;20421;-59
2023/06/22 06:44:01;;;;;;;11.73;8.88;;;25.00;59.20;;;;;;4999265;28;20057;-60
2023/06/22 06:46:28;;;;;;;10.02;8.85;;;25.00;59.20;;;;;;4994979;28;20057;-60
2023/06/22 06:48:55;;;;;;;12.15;9.40;;;25.10;58.60;;;;;;4999553;28;20057;-59
2023/06/22 06:51:22;;;;;;;12.60;9.35;;;25.10;58.70;;;;;;5000375;28;20062;-59
2023/06/22 06:53:51;;;;;;;11.75;9.25;;;25.10;58.60;;;;;;4998554;28;20513;-60
2023/06/22 06:56:18;;;;;;;12.27;9.15;;;25.10;58.60;;;;;;5001984;28;20054;-49
2023/06/22 06:58:45;;;;;;;11.07;8.95;;;25.10;58.70;;;;;;4997591;28;20057;-49
2023/06/22 07:01:13;;;;;;;11.55;9.85;;;25.10;59.10;;;;;;4998900;28;20065;-55
2023/06/22 07:03:40;;;;;;;13.05;9.65;;;25.10;59.10;;;;;;4997323;28;20054;-57
2023/06/22 07:06:07;;;;;;;14.23;10.18;;;25.10;59.00;;;;;;4997380;28;20056;-55
2023/06/22 07:08:35;;;;;;;12.30;9.82;;;25.10;58.90;;;;;;4997739;28;20054;-55
2023/06/22 07:11:03;;;;;;;12.15;10.05;;;25.10;59.10;;;;;;4995387;28;20053;-57
2023/06/22 07:13:31;;;;;;;14.30;9.90;;;25.10;59.10;;;;;;4996208;28;20054;-54
2023/06/22 07:15:59;;;;;;;11.82;9.55;;;25.00;58.90;;;;;;4999150;28;20532;-51
2023/06/22 07:18:26;;;;;;;13.05;8.65;;;25.10;58.90;;;;;;4995841;28;22011;-54
2023/06/22 07:20:53;;;;;;;11.07;8.82;;;25.10;59.00;;;;;;5000241;28;20060;-51
2023/06/22 07:23:21;;;;;;;15.10;9.13;;;25.20;59.00;;;;;;4999272;28;20046;-56
2023/06/22 07:25:49;;;;;;;11.68;7.88;;;25.20;59.20;;;;;;4999238;28;20054;-54
2023/06/22 07:28:19;;;;;;;13.73;8.35;;;25.30;59.30;;;;;;4990215;28;20164;-55
2023/06/22 07:30:55;;;;;;;10.38;9.27;;;25.30;59.30;;;;;;4992337;28;20061;-54
2023/06/22 07:33:27;;;;;;;9.27;8.18;;;25.40;59.30;;;;;;4994652;28;20054;-54
2023/06/22 07:41:46;;;;;;;;;;;25.60;59.10;;;;;;4992926;28;20513;-54
2023/06/22 07:44:36;;;;;;;9.98;8.90;;;25.60;58.80;;;;;;4996257;28;19930;-53
2023/06/22 07:47:09;;;;;;;10.68;8.43;;;25.70;58.90;;;;;;5000803;28;20049;-53
2023/06/22 07:49:44;;;;;;;14.05;8.65;;;25.70;58.80;;;;;;4993941;28;20069;-52
2023/06/22 07:52:14;;;;;;;13.40;9.32;;;25.70;58.90;;;;;;4993656;28;20057;-53
2023/06/22 07:54:46;;;;;;;14.40;10.13;;;25.80;58.90;;;;;;4993804;28;20058;-51
2023/06/22 07:57:52;;;;;;;12.15;9.40;;;25.80;59.10;;;;;;4993761;28;20050;-52
2023/06/22 08:00:41;;;;;;;12.45;8.57;;;25.80;59.20;;;;;;4993234;28;20050;-54
2023/06/22 08:03:09;;;;;;;10.00;8.10;;;25.90;59.20;;;;;;5000558;28;20513;-55
2023/06/22 08:05:36;;;;;;;13.15;10.48;;;26.00;59.20;;;;;;4997860;28;20061;-60
2023/06/22 08:08:04;;;;;;;10.88;9.40;;;26.00;58.60;;;;;;4995155;28;20057;-59
2023/06/22 08:10:31;;;;;;;10.00;8.27;;;26.00;58.50;;;;;;4998379;28;20592;-60
2023/06/22 08:12:58;;;;;;;9.43;8.45;;;26.00;58.50;;;;;;4995288;28;20057;-60
2023/06/22 08:15:29;;;;;;;13.43;9.23;;;26.10;58.40;;;;;;4998113;28;20050;-60
2023/06/22 08:17:57;;;;;;;10.10;8.73;;;26.10;58.40;;;;;;4999200;28;20283;-60
2023/06/22 08:20:24;;;;;;;10.60;8.70;;;26.20;58.40;;;;;;4993702;28;20046;-60
2023/06/22 08:22:52;;;;;;;11.23;8.57;;;26.20;58.40;;;;;;4997743;28;20061;-61
2023/06/22 08:25:19;;;;;;;9.60;8.45;;;26.30;58.50;;;;;;4996002;28;20062;-60
2023/06/22 08:27:48;;;;;;;13.27;9.05;;;26.30;58.50;;;;;;4998735;28;20508;-60
2023/06/22 08:30:16;;;;;;;11.60;8.15;;;26.30;58.70;;;;;;4998462;28;20049;-60
2023/06/22 08:32:45;;;;;;;8.82;7.93;;;26.30;58.80;;;;;;4998165;28;20058;-62
2023/06/22 08:35:12;;;;;;;12.45;8.23;;;26.40;58.70;;;;;;4995565;28;20054;-62
2023/06/22 08:37:40;;;;;;;9.88;8.02;;;26.50;58.70;;;;;;4996965;28;20053;-62
2023/06/22 08:40:09;;;;;;;9.48;8.07;;;26.50;58.80;;;;;;4993798;28;20050;-62
2023/06/22 08:42:37;;;;;;;9.50;8.43;;;26.60;58.90;;;;;;4994340;28;20421;-64
2023/06/22 08:45:05;;;;;;;9.85;8.25;;;26.70;58.50;;;;;;4999354;28;20061;-62
2023/06/22 08:47:33;;;;;;;9.90;8.32;;;26.70;58.50;;;;;;4996213;28;20417;-58
2023/06/22 08:50:02;;;;;;;9.55;7.80;;;26.70;58.30;;;;;;4997534;28;20053;-62
2023/06/22 08:52:30;;;;;;;9.23;7.85;;;26.80;58.30;;;;;;4997615;28;20049;-62
2023/06/22 08:54:58;;;;;;;9.35;7.65;;;26.80;58.40;;;;;;4999249;28;20053;-61
2023/06/22 08:57:25;;;;;;;13.13;8.73;;;26.90;58.40;;;;;;4995938;28;20065;-63
2023/06/22 08:59:53;;;;;;;9.90;7.70;;;27.00;58.20;;;;;;4998944;28;20054;-62
2023/06/22 09:02:20;;;;;;;10.52;9.05;;;27.00;58.00;;;;;;4998825;28;20056;-62
2023/06/22 09:04:48;;;;;;;10.15;8.05;;;27.10;57.80;;;;;;4998371;28;20444;-64
2023/06/22 09:07:22;;;;;;;10.15;8.57;;;27.20;57.60;;;;;;5000465;28;20056;-63
2023/06/22 09:09:49;;;;;;;9.65;7.80;;;27.20;57.10;;;;;;4998932;28;20525;-62
2023/06/22 09:12:16;;;;;;;46.38;9.68;;;27.30;57.10;;;;;;4997427;28;20064;-61
2023/06/22 09:14:44;;;;;;;30.27;9.35;;;27.30;56.80;;;;;;4998910;28;20061;-61
2023/06/22 09:17:11;;;;;;;49.35;10.90;;;27.40;56.60;;;;;;4999260;28;20057;-63
2023/06/22 09:19:38;;;;;;;11.73;8.18;;;27.50;56.50;;;;;;4998622;28;20054;-62
2023/06/22 09:22:06;;;;;;;9.07;8.13;;;27.50;56.40;;;;;;4989567;28;20057;-63
2023/06/22 09:24:35;;;;;;;10.43;7.78;;;27.60;56.00;;;;;;4996576;28;20050;-62
2023/06/22 09:27:02;;;;;;;12.05;7.97;;;27.60;55.70;;;;;;4998322;28;20069;-62
2023/06/22 09:29:33;;;;;;;10.48;8.32;;;27.70;55.60;;;;;;4996856;28;20057;-65
2023/06/22 09:32:00;;;;;;;10.48;8.15;;;27.70;55.60;;;;;;4996329;28;20053;-63
2023/06/22 09:34:27;;;;;;;9.63;8.05;;;27.70;55.20;;;;;;4997333;28;20516;-62
2023/06/22 09:36:57;;;;;;;9.23;7.95;;;27.80;55.10;;;;;;4998878;28;20413;-63
2023/06/22 09:39:24;;;;;;;9.15;7.82;;;27.80;55.10;;;;;;5001955;28;20057;-62
2023/06/22 09:41:52;;;;;;;12.38;8.55;;;27.90;55.10;;;;;;5001902;28;20064;-62
2023/06/22 09:44:20;;;;;;;8.88;7.97;;;27.90;55.00;;;;;;5000641;28;20054;-62
2023/06/22 09:46:47;;;;;;;15.25;8.80;;;28.00;55.10;;;;;;5002745;28;20453;-63
2023/06/22 09:49:14;;;;;;;11.35;8.55;;;28.00;54.70;;;;;;5000994;28;20352;-62
2023/06/22 09:51:41;;;;;;;9.27;8.00;;;28.00;54.80;;;;;;5002096;28;20532;-62
2023/06/22 09:54:09;;;;;;;11.38;8.68;;;28.00;55.00;;;;;;5003884;28;20060;-62
2023/06/22 09:56:37;;;;;;;9.65;7.97;;;28.10;55.20;;;;;;4999104;28;20581;-62
2023/06/22 09:59:06;;;;;;;9.77;8.23;;;28.10;55.20;;;;;;5001106;28;20054;-63
2023/06/22 10:01:33;;;;;;;9.52;8.20;;;28.20;55.10;;;;;;4997978;28;20395;-60
2023/06/22 10:04:00;;;;;;;9.57;7.90;;;28.20;54.70;;;;;;4998838;28;20042;-62
2023/06/22 10:06:27;;;;;;;8.98;7.65;;;28.20;54.40;;;;;;4998898;28;20168;-62
2023/06/22 10:08:55;;;;;;;9.05;7.97;;;28.20;54.10;;;;;;4989041;28;20417;-61
2023/06/22 10:11:26;;;;;;;8.60;7.70;;;28.20;54.10;;;;;;4995313;28;20054;-59
2023/06/22 10:13:54;;;;;;;10.48;7.55;;;28.20;54.10;;;;;;5001111;28;20057;-59
2023/06/22 10:16:22;;;;;;;9.50;8.05;;;28.20;54.20;;;;;;5002725;28;20417;-58
2023/06/22 10:18:49;;;;;;;9.02;7.80;;;28.20;54.10;;;;;;5001947;28;20050;-58
2023/06/22 10:21:17;;;;;;;10.80;7.88;;;28.20;54.10;;;;;;5002593;28;20053;-56
2023/06/22 10:23:44;;;;;;;8.98;7.97;;;28.20;54.20;;;;;;5000705;28;20062;-58
2023/06/22 10:26:11;;;;;;;10.13;8.25;;;28.20;54.40;;;;;;5001959;28;20054;-54
2023/06/22 10:28:38;;;;;;;9.20;7.80;;;28.20;54.50;;;;;;4998158;28;20134;-49
2023/06/22 10:31:05;;;;;;;9.65;8.15;;;28.20;54.60;;;;;;5002999;28;20061;-52
2023/06/22 10:33:34;;;;;;;9.27;8.27;;;28.20;54.80;;;;;;5002257;28;20058;-57
2023/06/22 10:36:01;;;;;;;9.52;8.35;;;28.10;54.90;;;;;;5000160;28;20073;-50
2023/06/22 10:38:28;;;;;;;10.05;9.00;;;28.10;55.20;;;;;;5001587;28;20058;-49
2023/06/22 10:40:56;;;;;;;10.50;8.45;;;28.10;55.30;;;;;;5000562;28;20064;-53
2023/06/22 10:43:23;;;;;;;12.30;8.40;;;28.00;55.30;;;;;;5002174;28;20410;-52
2023/06/22 10:45:50;;;;;;;15.25;8.50;;;28.00;55.50;;;;;;5001998;28;20058;-49
2023/06/22 10:48:17;;;;;;;11.02;8.50;;;28.00;55.80;;;;;;5002723;28;20417;-51
2023/06/22 10:50:47;;;;;;;10.43;8.57;;;28.00;55.90;;;;;;4998442;28;20065;-49
2023/06/22 10:53:14;;;;;;;9.73;8.68;;;27.90;56.10;;;;;;5001064;28;20510;-49
2023/06/22 10:55:41;;;;;;;10.65;9.02;;;27.90;56.20;;;;;;5002053;28;20125;-51
2023/06/22 10:58:09;;;;;;;12.18;9.25;;;27.90;56.20;;;;;;4999182;28;20053;-50
2023/06/22 11:00:36;;;;;;;10.30;8.95;;;27.90;56.30;;;;;;4999965;28;20058;-52
2023/06/22 11:03:03;;;;;;;16.50;9.80;;;27.80;56.20;;;;;;5000957;28;20060;-49
2023/06/22 11:05:30;;;;;;;15.15;10.10;;;27.80;56.40;;;;;;5000938;28;20057;-52
2023/06/22 11:07:59;;;;;;;21.25;11.93;;;27.70;56.60;;;;;;4999556;28;20054;-58
2023/06/22 11:10:26;;;;;;;15.85;10.88;;;27.70;57.00;;;;;;5001642;28;20050;-55
2023/06/22 11:12:55;;;;;;;16.25;10.80;;;27.70;57.10;;;;;;4999917;28;20801;-54
2023/06/22 11:15:22;;;;;;;12.02;9.45;;;27.60;57.20;;;;;;4997636;28;20057;-54
2023/06/22 11:17:49;;;;;;;14.15;10.07;;;27.50;57.20;;;;;;4995723;28;20057;-52
2023/06/22 11:20:16;;;;;;;11.43;9.32;;;27.50;57.20;;;;;;4997234;28;20061;-55
2023/06/22 11:22:44;;;;;;;13.13;9.70;;;27.40;57.20;;;;;;4998665;28;20504;-52
2023/06/22 11:25:12;;;;;;;14.77;10.88;;;27.30;57.30;;;;;;5000225;28;20054;-54
2023/06/22 11:27:40;;;;;;;15.00;9.68;;;27.30;58.00;;;;;;4997156;28;20058;-55
2023/06/22 11:30:08;;;;;;;12.82;9.50;;;27.20;57.50;;;;;;5000331;28;20049;-53
2023/06/22 11:32:36;;;;;;;13.20;9.57;;;27.20;57.60;;;;;;4998392;28;20494;-52
2023/06/22 11:35:03;;;;;;;12.52;10.07;;;27.20;57.70;;;;;;4997052;28;20077;-54
2023/06/22 11:37:30;;;;;;;14.57;11.40;;;27.10;57.90;;;;;;5000428;28;20061;-53
2023/06/22 11:39:58;;;;;;;15.15;11.73;;;27.10;58.60;;;;;;4995215;28;20054;-57
2023/06/22 11:42:28;;;;;;;18.75;13.27;;;27.00;59.30;;;;;;4994313;28;20050;-56
2023/06/22 11:44:55;;;;;;;25.35;15.70;;;27.00;59.90;;;;;;4994970;28;20402;-58
2023/06/22 11:47:22;;;;;;;16.17;12.77;;;26.90;60.50;;;;;;4998750;28;20498;-57
2023/06/22 11:49:49;;;;;;;18.25;14.30;;;26.70;60.60;;;;;;4997876;28;20524;-57
2023/06/22 11:52:17;;;;;;;22.95;15.23;;;26.70;61.40;;;;;;4997564;28;20498;-56
2023/06/22 11:54:45;;;;;;;17.15;14.15;;;26.60;61.80;;;;;;4995551;28;20073;-58
2023/06/22 11:57:12;;;;;;;16.45;13.55;;;26.50;62.10;;;;;;5000665;28;20050;-56
2023/06/22 11:59:41;;;;;;;14.57;12.32;;;26.40;62.60;;;;;;4994529;28;20057;-55
2023/06/22 12:02:09;;;;;;;16.88;13.77;;;26.40;62.80;;;;;;4995678;28;20053;-56
2023/06/22 12:04:36;;;;;;;17.48;13.98;;;26.30;63.30;;;;;;4996237;28;20062;-56
2023/06/22 12:07:04;;;;;;;16.83;12.60;;;26.20;63.60;;;;;;4996316;28;20053;-57
2023/06/22 12:09:31;;;;;;;15.25;12.73;;;26.20;63.70;;;;;;5001070;28;20056;-56
2023/06/22 12:11:58;;;;;;;17.88;12.35;;;26.20;64.40;;;;;;4996914;28;20054;-55
2023/06/22 12:14:25;;;;;;;12.88;10.88;;;26.20;64.60;;;;;;4999568;28;20053;-54
2023/06/22 12:16:54;;;;;;;15.15;10.73;;;26.30;64.40;;;;;;4998823;28;20058;-55
2023/06/22 12:19:21;;;;;;;13.02;10.60;;;26.30;64.00;;;;;;4998446;28;20072;-55
2023/06/22 12:21:48;;;;;;;13.63;10.55;;;26.40;63.60;;;;;;4997618;28;20046;-54
2023/06/22 12:24:15;;;;;;;11.70;10.30;;;26.40;63.40;;;;;;4999122;28;20049;-50
2023/06/22 12:26:43;;;;;;;14.07;11.32;;;26.50;63.20;;;;;;4998364;28;20053;-55
2023/06/22 12:29:11;;;;;;;12.27;10.38;;;26.50;62.80;;;;;;5002593;28;20056;-54
2023/06/22 12:31:39;;;;;;;12.82;10.13;;;26.50;62.60;;;;;;4999225;28;20046;-56
2023/06/22 12:34:08;;;;;;;13.07;10.18;;;26.60;62.50;;;;;;5000769;28;20050;-57
2023/06/22 12:36:35;;;;;;;14.38;10.77;;;26.60;62.50;;;;;;5003537;28;20061;-53
2023/06/22 12:39:02;;;;;;;11.35;9.45;;;26.70;62.60;;;;;;5001718;28;20074;-55
2023/06/22 12:41:29;;;;;;;10.88;9.77;;;26.70;62.80;;;;;;4999782;28;20421;-54
2023/06/22 12:43:57;;;;;;;12.98;9.90;;;26.80;62.40;;;;;;5002867;28;20060;-55
2023/06/22 12:46:24;;;;;;;9.75;8.73;;;26.90;62.10;;;;;;5002084;28;20057;-60
2023/06/22 12:48:51;;;;;;;13.15;10.43;;;26.90;61.80;;;;;;5000071;28;20053;-61
2023/06/22 12:51:23;;;;;;;11.75;10.23;;;26.90;61.50;;;;;;4999324;28;20435;-62
2023/06/22 12:53:50;;;;;;;13.18;10.15;;;27.00;61.40;;;;;;5002629;28;20548;-60